sensor_id;sensor_type;location;lat;lon;timestamp;temperature;humidity
24618;DHT22;12762;51.730;5.356;2023-04-25T00:01:08;6.90;79.40
24618;DHT22;12762;51.730;5.356;2023-04-25T00:03:35;6.90;79.50
24618;DHT22;12762;51.730;5.356;2023-04-25T00:06:02;6.80;79.50
24618;DHT22;12762;51.730;5.356;2023-04-25T00:08:30;6.80;79.50
24618;DHT22;12762;51.730;5.356;2023-04-25T00:10:57;6.80;79.60
24618;DHT22;12762;51.730;5.356;2023-04-25T00:13:25;6.80;79.70
24618;DHT22;12762;51.730;5.356;2023-04-25T00:15:52;6.70;79.70
24618;DHT22;12762;51.730;5.356;2023-04-25T00:18:26;6.70;79.80
24618;DHT22;12762;51.730;5.356;2023-04-25T00:20:56;6.60;79.80
24618;DHT22;12762;51.730;5.356;2023-04-25T00:23:23;6.60;79.90
24618;DHT22;12762;51.730;5.356;2023-04-25T00:25:50;6.60;79.90
24618;DHT22;12762;51.730;5.356;2023-04-25T00:28:17;6.60;80.00
24618;DHT22;12762;51.730;5.356;2023-04-25T00:30:44;6.50;80.00
24618;DHT22;12762;51.730;5.356;2023-04-25T00:33:11;6.50;80.10
24618;DHT22;12762;51.730;5.356;2023-04-25T00:35:38;6.50;80.10
24618;DHT22;12762;51.730;5.356;2023-04-25T00:38:10;6.50;80.20
24618;DHT22;12762;51.730;5.356;2023-04-25T00:40:37;6.50;80.30
24618;DHT22;12762;51.730;5.356;2023-04-25T00:43:11;6.40;80.20
24618;DHT22;12762;51.730;5.356;2023-04-25T00:45:39;6.40;80.40
24618;DHT22;12762;51.730;5.356;2023-04-25T00:48:09;6.40;80.40
24618;DHT22;12762;51.730;5.356;2023-04-25T00:50:36;6.40;80.40
24618;DHT22;12762;51.730;5.356;2023-04-25T00:53:03;6.40;80.50
24618;DHT22;12762;51.730;5.356;2023-04-25T00:55:30;6.40;80.50
24618;DHT22;12762;51.730;5.356;2023-04-25T00:57:58;6.30;80.40
24618;DHT22;12762;51.730;5.356;2023-04-25T01:00:25;6.30;80.50
24618;DHT22;12762;51.730;5.356;2023-04-25T01:02:52;6.30;80.60
24618;DHT22;12762;51.730;5.356;2023-04-25T01:05:19;6.30;80.70
24618;DHT22;12762;51.730;5.356;2023-04-25T01:07:46;6.30;80.70
24618;DHT22;12762;51.730;5.356;2023-04-25T01:10:13;6.30;80.80
24618;DHT22;12762;51.730;5.356;2023-04-25T01:12:41;6.30;80.90
24618;DHT22;12762;51.730;5.356;2023-04-25T01:15:08;6.30;81.00
24618;DHT22;12762;51.730;5.356;2023-04-25T01:17:35;6.30;81.00
24618;DHT22;12762;51.730;5.356;2023-04-25T01:20:04;6.40;81.10
24618;DHT22;12762;51.730;5.356;2023-04-25T01:22:32;6.40;81.10
24618;DHT22;12762;51.730;5.356;2023-04-25T01:24:59;6.50;81.20
24618;DHT22;12762;51.730;5.356;2023-04-25T01:27:27;6.50;81.20
24618;DHT22;12762;51.730;5.356;2023-04-25T01:29:54;6.50;81.20
24618;DHT22;12762;51.730;5.356;2023-04-25T01:32:23;6.60;81.20
24618;DHT22;12762;51.730;5.356;2023-04-25T01:34:50;6.60;81.20
24618;DHT22;12762;51.730;5.356;2023-04-25T01:37:20;6.60;81.20
24618;DHT22;12762;51.730;5.356;2023-04-25T01:39:47;6.60;81.10
24618;DHT22;12762;51.730;5.356;2023-04-25T01:42:15;6.60;81.00
24618;DHT22;12762;51.730;5.356;2023-04-25T01:44:42;6.60;81.00
24618;DHT22;12762;51.730;5.356;2023-04-25T01:47:09;6.60;81.00
24618;DHT22;12762;51.730;5.356;2023-04-25T01:49:36;6.60;81.00
24618;DHT22;12762;51.730;5.356;2023-04-25T01:52:03;6.60;81.00
24618;DHT22;12762;51.730;5.356;2023-04-25T01:54:30;6.60;81.00
24618;DHT22;12762;51.730;5.356;2023-04-25T01:56:57;6.60;81.00
24618;DHT22;12762;51.730;5.356;2023-04-25T01:59:27;6.60;81.90
24618;DHT22;12762;51.730;5.356;2023-04-25T02:01:53;6.60;81.00
24618;DHT22;12762;51.730;5.356;2023-04-25T02:04:20;6.60;81.00
24618;DHT22;12762;51.730;5.356;2023-04-25T02:06:47;6.60;81.10
24618;DHT22;12762;51.730;5.356;2023-04-25T02:09:14;6.50;80.90
24618;DHT22;12762;51.730;5.356;2023-04-25T02:11:41;6.50;81.00
24618;DHT22;12762;51.730;5.356;2023-04-25T02:14:08;6.50;81.00
24618;DHT22;12762;51.730;5.356;2023-04-25T02:16:35;6.50;81.00
24618;DHT22;12762;51.730;5.356;2023-04-25T02:19:02;6.40;81.00
24618;DHT22;12762;51.730;5.356;2023-04-25T02:21:29;6.40;81.00
24618;DHT22;12762;51.730;5.356;2023-04-25T02:23:57;6.40;81.00
24618;DHT22;12762;51.730;5.356;2023-04-25T02:26:24;6.40;81.10
24618;DHT22;12762;51.730;5.356;2023-04-25T02:28:50;6.30;81.00
24618;DHT22;12762;51.730;5.356;2023-04-25T02:31:18;6.30;81.00
24618;DHT22;12762;51.730;5.356;2023-04-25T02:33:47;6.30;81.10
24618;DHT22;12762;51.730;5.356;2023-04-25T02:36:14;6.30;82.00
24618;DHT22;12762;51.730;5.356;2023-04-25T02:38:41;6.30;81.10
24618;DHT22;12762;51.730;5.356;2023-04-25T02:41:08;6.20;81.10
24618;DHT22;12762;51.730;5.356;2023-04-25T02:43:35;6.20;81.10
24618;DHT22;12762;51.730;5.356;2023-04-25T02:46:01;6.20;81.20
24618;DHT22;12762;51.730;5.356;2023-04-25T02:48:28;6.20;81.20
24618;DHT22;12762;51.730;5.356;2023-04-25T02:50:56;6.20;81.30
24618;DHT22;12762;51.730;5.356;2023-04-25T02:53:22;6.20;81.30
24618;DHT22;12762;51.730;5.356;2023-04-25T02:55:49;6.20;81.30
24618;DHT22;12762;51.730;5.356;2023-04-25T02:58:16;6.20;81.30
24618;DHT22;12762;51.730;5.356;2023-04-25T03:00:43;6.20;81.30
24618;DHT22;12762;51.730;5.356;2023-04-25T03:03:10;6.20;81.30
24618;DHT22;12762;51.730;5.356;2023-04-25T03:05:40;6.20;81.30
24618;DHT22;12762;51.730;5.356;2023-04-25T03:08:07;6.30;81.40
24618;DHT22;12762;51.730;5.356;2023-04-25T03:10:33;6.30;81.30
24618;DHT22;12762;51.730;5.356;2023-04-25T03:13:00;6.30;81.30
24618;DHT22;12762;51.730;5.356;2023-04-25T03:15:27;6.30;81.30
24618;DHT22;12762;51.730;5.356;2023-04-25T03:17:54;6.30;81.30
24618;DHT22;12762;51.730;5.356;2023-04-25T03:20:21;6.30;81.30
24618;DHT22;12762;51.730;5.356;2023-04-25T03:22:48;6.20;81.20
24618;DHT22;12762;51.730;5.356;2023-04-25T03:25:14;6.20;81.20
24618;DHT22;12762;51.730;5.356;2023-04-25T03:27:41;6.20;81.30
24618;DHT22;12762;51.730;5.356;2023-04-25T03:30:08;6.20;81.20
24618;DHT22;12762;51.730;5.356;2023-04-25T03:32:35;6.20;81.30
24618;DHT22;12762;51.730;5.356;2023-04-25T03:35:02;6.10;81.20
24618;DHT22;12762;51.730;5.356;2023-04-25T03:37:30;6.10;81.30
24618;DHT22;12762;51.730;5.356;2023-04-25T03:39:56;6.10;81.30
24618;DHT22;12762;51.730;5.356;2023-04-25T03:42:23;6.10;81.40
24618;DHT22;12762;51.730;5.356;2023-04-25T03:44:51;6.00;81.30
24618;DHT22;12762;51.730;5.356;2023-04-25T03:47:18;6.00;81.40
24618;DHT22;12762;51.730;5.356;2023-04-25T03:49:45;6.00;81.40
24618;DHT22;12762;51.730;5.356;2023-04-25T03:52:12;6.00;81.50
24618;DHT22;12762;51.730;5.356;2023-04-25T03:54:38;6.00;81.40
24618;DHT22;12762;51.730;5.356;2023-04-25T03:57:05;6.00;81.50
24618;DHT22;12762;51.730;5.356;2023-04-25T03:59:32;6.00;81.60
24618;DHT22;12762;51.730;5.356;2023-04-25T04:01:59;6.00;81.60
24618;DHT22;12762;51.730;5.356;2023-04-25T04:04:29;6.00;81.70
24618;DHT22;12762;51.730;5.356;2023-04-25T04:06:57;6.00;81.80
24618;DHT22;12762;51.730;5.356;2023-04-25T04:09:23;6.00;81.70
24618;DHT22;12762;51.730;5.356;2023-04-25T04:11:50;6.00;81.70
24618;DHT22;12762;51.730;5.356;2023-04-25T04:14:20;6.00;81.80
24618;DHT22;12762;51.730;5.356;2023-04-25T04:16:47;6.10;81.90
24618;DHT22;12762;51.730;5.356;2023-04-25T04:19:14;6.10;81.80
24618;DHT22;12762;51.730;5.356;2023-04-25T04:21:41;6.10;81.80
24618;DHT22;12762;51.730;5.356;2023-04-25T04:24:08;6.10;81.80
24618;DHT22;12762;51.730;5.356;2023-04-25T04:26:35;6.20;81.80
24618;DHT22;12762;51.730;5.356;2023-04-25T04:29:01;6.20;81.70
24618;DHT22;12762;51.730;5.356;2023-04-25T04:31:29;6.20;81.70
24618;DHT22;12762;51.730;5.356;2023-04-25T04:33:56;6.30;81.90
24618;DHT22;12762;51.730;5.356;2023-04-25T04:36:23;6.30;81.70
24618;DHT22;12762;51.730;5.356;2023-04-25T04:38:51;6.30;81.70
24618;DHT22;12762;51.730;5.356;2023-04-25T04:41:17;6.30;81.60
24618;DHT22;12762;51.730;5.356;2023-04-25T04:43:46;6.30;81.60
24618;DHT22;12762;51.730;5.356;2023-04-25T04:46:13;6.30;81.60
24618;DHT22;12762;51.730;5.356;2023-04-25T04:48:40;6.40;81.60
24618;DHT22;12762;51.730;5.356;2023-04-25T04:51:07;6.40;81.50
24618;DHT22;12762;51.730;5.356;2023-04-25T04:53:36;6.40;81.50
24618;DHT22;12762;51.730;5.356;2023-04-25T04:56:03;6.40;81.40
24618;DHT22;12762;51.730;5.356;2023-04-25T04:58:30;6.40;81.40
24618;DHT22;12762;51.730;5.356;2023-04-25T05:01:00;6.40;81.40
24618;DHT22;12762;51.730;5.356;2023-04-25T05:03:27;6.40;81.40
24618;DHT22;12762;51.730;5.356;2023-04-25T05:05:54;6.40;81.30
24618;DHT22;12762;51.730;5.356;2023-04-25T05:08:21;6.40;81.30
24618;DHT22;12762;51.730;5.356;2023-04-25T05:10:48;6.40;81.20
24618;DHT22;12762;51.730;5.356;2023-04-25T05:13:15;6.40;81.20
24618;DHT22;12762;51.730;5.356;2023-04-25T05:15:42;6.40;81.20
24618;DHT22;12762;51.730;5.356;2023-04-25T05:18:09;6.40;81.20
24618;DHT22;12762;51.730;5.356;2023-04-25T05:20:38;6.40;81.20
24618;DHT22;12762;51.730;5.356;2023-04-25T05:23:05;6.30;81.20
24618;DHT22;12762;51.730;5.356;2023-04-25T05:25:32;6.40;81.20
24618;DHT22;12762;51.730;5.356;2023-04-25T05:27:59;6.40;81.30
24618;DHT22;12762;51.730;5.356;2023-04-25T05:30:26;6.40;81.30
24618;DHT22;12762;51.730;5.356;2023-04-25T05:32:53;6.40;81.30
24618;DHT22;12762;51.730;5.356;2023-04-25T05:35:20;6.50;81.30
24618;DHT22;12762;51.730;5.356;2023-04-25T05:37:46;6.50;81.30
24618;DHT22;12762;51.730;5.356;2023-04-25T05:40:13;6.60;81.30
24618;DHT22;12762;51.730;5.356;2023-04-25T05:42:40;6.60;81.30
24618;DHT22;12762;51.730;5.356;2023-04-25T05:45:10;6.70;81.20
24618;DHT22;12762;51.730;5.356;2023-04-25T05:47:37;6.70;81.10
24618;DHT22;12762;51.730;5.356;2023-04-25T05:50:04;6.70;80.90
24618;DHT22;12762;51.730;5.356;2023-04-25T05:52:31;6.80;81.00
24618;DHT22;12762;51.730;5.356;2023-04-25T05:54:58;6.80;80.90
24618;DHT22;12762;51.730;5.356;2023-04-25T05:57:26;6.70;80.80
24618;DHT22;12762;51.730;5.356;2023-04-25T05:59:54;6.80;80.90
24618;DHT22;12762;51.730;5.356;2023-04-25T06:02:21;6.70;80.70
24618;DHT22;12762;51.730;5.356;2023-04-25T06:04:52;6.70;80.70
24618;DHT22;12762;51.730;5.356;2023-04-25T06:07:19;6.70;80.70
24618;DHT22;12762;51.730;5.356;2023-04-25T06:09:46;6.70;80.70
24618;DHT22;12762;51.730;5.356;2023-04-25T06:12:13;6.70;80.70
24618;DHT22;12762;51.730;5.356;2023-04-25T06:14:41;6.70;80.60
24618;DHT22;12762;51.730;5.356;2023-04-25T06:17:07;6.80;80.70
24618;DHT22;12762;51.730;5.356;2023-04-25T06:19:37;6.80;80.60
24618;DHT22;12762;51.730;5.356;2023-04-25T06:22:04;6.80;80.60
24618;DHT22;12762;51.730;5.356;2023-04-25T06:24:31;6.90;80.50
24618;DHT22;12762;51.730;5.356;2023-04-25T06:26:57;6.90;80.50
24618;DHT22;12762;51.730;5.356;2023-04-25T06:29:24;7.00;80.50
24618;DHT22;12762;51.730;5.356;2023-04-25T06:31:51;7.00;80.30
24618;DHT22;12762;51.730;5.356;2023-04-25T06:34:18;7.00;80.20
24618;DHT22;12762;51.730;5.356;2023-04-25T06:36:45;7.00;80.20
24618;DHT22;12762;51.730;5.356;2023-04-25T06:39:12;7.10;80.20
24618;DHT22;12762;51.730;5.356;2023-04-25T06:41:39;7.10;80.10
24618;DHT22;12762;51.730;5.356;2023-04-25T06:44:08;7.20;80.10
24618;DHT22;12762;51.730;5.356;2023-04-25T06:46:35;7.30;80.10
24618;DHT22;12762;51.730;5.356;2023-04-25T06:49:04;7.40;80.20
24618;DHT22;12762;51.730;5.356;2023-04-25T06:51:33;7.50;80.20
24618;DHT22;12762;51.730;5.356;2023-04-25T06:54:00;7.60;80.90
24618;DHT22;12762;51.730;5.356;2023-04-25T06:56:28;7.70;80.00
24618;DHT22;12762;51.730;5.356;2023-04-25T06:58:57;7.80;79.80
24618;DHT22;12762;51.730;5.356;2023-04-25T07:01:24;8.00;79.80
24618;DHT22;12762;51.730;5.356;2023-04-25T07:03:51;8.20;79.70
24618;DHT22;12762;51.730;5.356;2023-04-25T07:06:18;8.30;79.40
24618;DHT22;12762;51.730;5.356;2023-04-25T07:08:45;8.40;79.00
24618;DHT22;12762;51.730;5.356;2023-04-25T07:11:12;8.50;79.00
24618;DHT22;12762;51.730;5.356;2023-04-25T07:13:39;8.70;79.50
24618;DHT22;12762;51.730;5.356;2023-04-25T07:16:05;9.40;80.80
24618;DHT22;12762;51.730;5.356;2023-04-25T07:18:33;10.30;79.70
24618;DHT22;12762;51.730;5.356;2023-04-25T07:20:59;11.40;79.30
24618;DHT22;12762;51.730;5.356;2023-04-25T07:23:26;12.40;78.20
24618;DHT22;12762;51.730;5.356;2023-04-25T07:25:53;13.30;76.60
24618;DHT22;12762;51.730;5.356;2023-04-25T07:28:20;14.20;75.20
24618;DHT22;12762;51.730;5.356;2023-04-25T07:30:47;15.10;73.90
24618;DHT22;12762;51.730;5.356;2023-04-25T07:33:14;15.70;71.70
24618;DHT22;12762;51.730;5.356;2023-04-25T07:35:41;15.80;69.40
24618;DHT22;12762;51.730;5.356;2023-04-25T07:38:08;15.50;67.90
24618;DHT22;12762;51.730;5.356;2023-04-25T07:40:35;15.10;67.50
24618;DHT22;12762;51.730;5.356;2023-04-25T07:43:01;14.60;67.20
24618;DHT22;12762;51.730;5.356;2023-04-25T07:45:28;14.10;67.20
24618;DHT22;12762;51.730;5.356;2023-04-25T07:47:55;13.70;67.60
24618;DHT22;12762;51.730;5.356;2023-04-25T07:50:22;13.30;68.40
24618;DHT22;12762;51.730;5.356;2023-04-25T07:52:49;13.00;68.50
24618;DHT22;12762;51.730;5.356;2023-04-25T07:55:16;12.80;68.80
24618;DHT22;12762;51.730;5.356;2023-04-25T07:57:46;12.60;69.20
24618;DHT22;12762;51.730;5.356;2023-04-25T08:00:13;12.30;69.20
24618;DHT22;12762;51.730;5.356;2023-04-25T08:02:41;12.00;69.50
24618;DHT22;12762;51.730;5.356;2023-04-25T08:05:08;11.80;69.70
24618;DHT22;12762;51.730;5.356;2023-04-25T08:07:38;11.60;70.00
24618;DHT22;12762;51.730;5.356;2023-04-25T08:10:06;11.50;70.40
24618;DHT22;12762;51.730;5.356;2023-04-25T08:12:33;11.40;70.70
24618;DHT22;12762;51.730;5.356;2023-04-25T08:15:00;11.40;71.00
24618;DHT22;12762;51.730;5.356;2023-04-25T08:17:27;11.30;71.00
24618;DHT22;12762;51.730;5.356;2023-04-25T08:19:54;11.40;71.20
24618;DHT22;12762;51.730;5.356;2023-04-25T08:22:22;11.40;71.40
24618;DHT22;12762;51.730;5.356;2023-04-25T08:24:48;11.50;71.60
24618;DHT22;12762;51.730;5.356;2023-04-25T08:27:15;11.60;71.60
24618;DHT22;12762;51.730;5.356;2023-04-25T08:29:42;11.70;71.60
24618;DHT22;12762;51.730;5.356;2023-04-25T08:32:09;11.80;71.40
24618;DHT22;12762;51.730;5.356;2023-04-25T08:34:36;11.70;71.10
24618;DHT22;12762;51.730;5.356;2023-04-25T08:37:04;11.80;71.20
24618;DHT22;12762;51.730;5.356;2023-04-25T08:39:32;11.90;71.60
24618;DHT22;12762;51.730;5.356;2023-04-25T08:41:59;12.10;71.40
24618;DHT22;12762;51.730;5.356;2023-04-25T08:44:30;12.50;71.80
24618;DHT22;12762;51.730;5.356;2023-04-25T08:46:59;12.90;71.90
24618;DHT22;12762;51.730;5.356;2023-04-25T08:49:27;13.40;71.20
24618;DHT22;12762;51.730;5.356;2023-04-25T08:51:59;13.70;70.00
24618;DHT22;12762;51.730;5.356;2023-04-25T08:54:27;14.10;70.00
24618;DHT22;12762;51.730;5.356;2023-04-25T08:57:02;14.40;68.80
24618;DHT22;12762;51.730;5.356;2023-04-25T08:59:36;14.20;67.50
24618;DHT22;12762;51.730;5.356;2023-04-25T09:02:05;13.90;67.00
24618;DHT22;12762;51.730;5.356;2023-04-25T09:04:33;13.60;67.10
24618;DHT22;12762;51.730;5.356;2023-04-25T09:07:00;13.30;68.30
24618;DHT22;12762;51.730;5.356;2023-04-25T09:09:27;13.10;67.70
24618;DHT22;12762;51.730;5.356;2023-04-25T09:11:54;12.90;68.10
24618;DHT22;12762;51.730;5.356;2023-04-25T09:14:22;12.70;68.20
24618;DHT22;12762;51.730;5.356;2023-04-25T09:19:36;12.90;69.70
24618;DHT22;12762;51.730;5.356;2023-04-25T09:22:08;13.20;69.70
24618;DHT22;12762;51.730;5.356;2023-04-25T09:24:38;13.50;69.10
24618;DHT22;12762;51.730;5.356;2023-04-25T09:27:21;13.60;68.60
24618;DHT22;12762;51.730;5.356;2023-04-25T09:29:57;13.80;68.50
24618;DHT22;12762;51.730;5.356;2023-04-25T09:32:26;14.00;68.60
24618;DHT22;12762;51.730;5.356;2023-04-25T09:34:55;14.30;68.30
24618;DHT22;12762;51.730;5.356;2023-04-25T09:37:29;14.60;66.90
24618;DHT22;12762;51.730;5.356;2023-04-25T09:39:58;14.80;66.40
24618;DHT22;12762;51.730;5.356;2023-04-25T09:42:26;15.00;65.60
24618;DHT22;12762;51.730;5.356;2023-04-25T09:44:56;15.00;65.10
24618;DHT22;12762;51.730;5.356;2023-04-25T09:47:24;15.20;65.00
24618;DHT22;12762;51.730;5.356;2023-04-25T09:49:54;15.50;65.10
24618;DHT22;12762;51.730;5.356;2023-04-25T09:52:24;15.70;64.10
24618;DHT22;12762;51.730;5.356;2023-04-25T09:54:52;16.00;63.90
24618;DHT22;12762;51.730;5.356;2023-04-25T09:57:23;16.30;64.10
24618;DHT22;12762;51.730;5.356;2023-04-25T09:59:52;16.50;62.80
24618;DHT22;12762;51.730;5.356;2023-04-25T10:02:24;16.70;62.80
24618;DHT22;12762;51.730;5.356;2023-04-25T10:04:53;16.80;62.00
24618;DHT22;12762;51.730;5.356;2023-04-25T10:07:24;16.70;60.90
24618;DHT22;12762;51.730;5.356;2023-04-25T10:10:00;16.60;61.00
24618;DHT22;12762;51.730;5.356;2023-04-25T10:12:32;16.80;61.30
24618;DHT22;12762;51.730;5.356;2023-04-25T10:15:00;17.00;61.00
24618;DHT22;12762;51.730;5.356;2023-04-25T10:17:27;17.30;60.70
24618;DHT22;12762;51.730;5.356;2023-04-25T10:19:57;17.50;60.00
24618;DHT22;12762;51.730;5.356;2023-04-25T10:22:36;17.70;59.30
24618;DHT22;12762;51.730;5.356;2023-04-25T10:25:04;17.50;58.40
24618;DHT22;12762;51.730;5.356;2023-04-25T10:27:31;17.20;58.50
24618;DHT22;12762;51.730;5.356;2023-04-25T10:30:09;16.90;58.10
24618;DHT22;12762;51.730;5.356;2023-04-25T10:32:44;16.60;58.10
24618;DHT22;12762;51.730;5.356;2023-04-25T10:35:15;16.30;58.60
24618;DHT22;12762;51.730;5.356;2023-04-25T10:40:30;15.60;58.60
24618;DHT22;12762;51.730;5.356;2023-04-25T10:46:25;15.00;59.20
24618;DHT22;12762;51.730;5.356;2023-04-25T10:48:55;14.70;59.80
24618;DHT22;12762;51.730;5.356;2023-04-25T10:51:24;14.60;60.00
24618;DHT22;12762;51.730;5.356;2023-04-25T10:56:22;14.30;60.10
24618;DHT22;12762;51.730;5.356;2023-04-25T10:58:49;14.20;60.50
24618;DHT22;12762;51.730;5.356;2023-04-25T11:01:24;14.00;60.00
24618;DHT22;12762;51.730;5.356;2023-04-25T11:03:57;13.90;60.30
24618;DHT22;12762;51.730;5.356;2023-04-25T11:09:26;13.90;60.80
24618;DHT22;12762;51.730;5.356;2023-04-25T11:11:55;13.90;60.50
24618;DHT22;12762;51.730;5.356;2023-04-25T11:14:23;13.80;60.00
24618;DHT22;12762;51.730;5.356;2023-04-25T11:16:59;13.80;59.90
24618;DHT22;12762;51.730;5.356;2023-04-25T11:19:28;14.00;60.90
24618;DHT22;12762;51.730;5.356;2023-04-25T11:22:02;14.30;60.60
24618;DHT22;12762;51.730;5.356;2023-04-25T11:24:33;14.50;60.00
24618;DHT22;12762;51.730;5.356;2023-04-25T11:27:02;14.70;59.90
24618;DHT22;12762;51.730;5.356;2023-04-25T11:29:31;14.90;59.90
24618;DHT22;12762;51.730;5.356;2023-04-25T11:31:59;15.20;59.70
24618;DHT22;12762;51.730;5.356;2023-04-25T11:34:28;15.60;59.20
24618;DHT22;12762;51.730;5.356;2023-04-25T11:36:57;15.80;58.80
24618;DHT22;12762;51.730;5.356;2023-04-25T11:39:25;15.70;57.70
24618;DHT22;12762;51.730;5.356;2023-04-25T11:41:53;15.60;57.50
24618;DHT22;12762;51.730;5.356;2023-04-25T11:44:20;15.30;56.70
24618;DHT22;12762;51.730;5.356;2023-04-25T11:46:51;15.30;56.90
24618;DHT22;12762;51.730;5.356;2023-04-25T11:49:18;15.40;56.70
24618;DHT22;12762;51.730;5.356;2023-04-25T11:51:47;15.60;56.70
24618;DHT22;12762;51.730;5.356;2023-04-25T11:54:14;15.80;55.50
24618;DHT22;12762;51.730;5.356;2023-04-25T11:56:42;15.90;55.10
24618;DHT22;12762;51.730;5.356;2023-04-25T11:59:09;15.80;55.20
24618;DHT22;12762;51.730;5.356;2023-04-25T12:01:39;15.70;54.40
24618;DHT22;12762;51.730;5.356;2023-04-25T12:04:17;15.80;54.80
24618;DHT22;12762;51.730;5.356;2023-04-25T12:06:45;15.90;54.60
24618;DHT22;12762;51.730;5.356;2023-04-25T12:09:20;16.00;54.80
24618;DHT22;12762;51.730;5.356;2023-04-25T12:11:55;16.20;54.90
24618;DHT22;12762;51.730;5.356;2023-04-25T12:14:27;16.40;54.80
24618;DHT22;12762;51.730;5.356;2023-04-25T12:16:59;16.60;55.00
24618;DHT22;12762;51.730;5.356;2023-04-25T12:19:31;16.70;54.10
24618;DHT22;12762;51.730;5.356;2023-04-25T12:22:01;16.40;53.70
24618;DHT22;12762;51.730;5.356;2023-04-25T12:24:32;16.00;54.90
24618;DHT22;12762;51.730;5.356;2023-04-25T12:27:04;15.90;55.40
24618;DHT22;12762;51.730;5.356;2023-04-25T12:29:33;15.70;55.20
24618;DHT22;12762;51.730;5.356;2023-04-25T12:32:16;15.70;55.90
24618;DHT22;12762;51.730;5.356;2023-04-25T12:34:43;15.60;55.90
24618;DHT22;12762;51.730;5.356;2023-04-25T12:37:10;15.40;55.90
24618;DHT22;12762;51.730;5.356;2023-04-25T12:39:37;15.30;55.90
24618;DHT22;12762;51.730;5.356;2023-04-25T12:42:04;15.20;55.70
24618;DHT22;12762;51.730;5.356;2023-04-25T12:44:35;15.10;56.00
24618;DHT22;12762;51.730;5.356;2023-04-25T12:47:02;15.10;56.40
24618;DHT22;12762;51.730;5.356;2023-04-25T12:49:30;15.10;56.80
24618;DHT22;12762;51.730;5.356;2023-04-25T12:51:58;15.10;55.80
24618;DHT22;12762;51.730;5.356;2023-04-25T12:54:25;15.30;56.00
24618;DHT22;12762;51.730;5.356;2023-04-25T12:56:52;15.60;56.00
24618;DHT22;12762;51.730;5.356;2023-04-25T12:59:19;15.90;55.70
24618;DHT22;12762;51.730;5.356;2023-04-25T13:01:47;16.10;55.20
24618;DHT22;12762;51.730;5.356;2023-04-25T13:04:14;16.20;54.70
24618;DHT22;12762;51.730;5.356;2023-04-25T13:06:42;16.10;54.00
24618;DHT22;12762;51.730;5.356;2023-04-25T13:09:09;16.00;53.60
24618;DHT22;12762;51.730;5.356;2023-04-25T13:11:36;16.00;54.50
24618;DHT22;12762;51.730;5.356;2023-04-25T13:14:03;16.10;54.40
24618;DHT22;12762;51.730;5.356;2023-04-25T13:16:30;16.30;54.00
24618;DHT22;12762;51.730;5.356;2023-04-25T13:18:57;16.20;54.10
24618;DHT22;12762;51.730;5.356;2023-04-25T13:21:24;16.10;54.00
24618;DHT22;12762;51.730;5.356;2023-04-25T13:23:50;15.90;54.40
24618;DHT22;12762;51.730;5.356;2023-04-25T13:26:18;15.60;54.80
24618;DHT22;12762;51.730;5.356;2023-04-25T13:28:44;15.40;54.90
24618;DHT22;12762;51.730;5.356;2023-04-25T13:31:11;15.20;55.50
24618;DHT22;12762;51.730;5.356;2023-04-25T13:33:38;15.00;55.80
24618;DHT22;12762;51.730;5.356;2023-04-25T13:36:06;14.80;56.20
24618;DHT22;12762;51.730;5.356;2023-04-25T13:38:33;14.80;56.60
24618;DHT22;12762;51.730;5.356;2023-04-25T13:41:00;14.80;56.90
24618;DHT22;12762;51.730;5.356;2023-04-25T13:43:29;14.90;57.00
24618;DHT22;12762;51.730;5.356;2023-04-25T13:45:58;15.10;57.20
24618;DHT22;12762;51.730;5.356;2023-04-25T13:48:25;15.30;56.90
24618;DHT22;12762;51.730;5.356;2023-04-25T13:50:52;15.60;56.30
24618;DHT22;12762;51.730;5.356;2023-04-25T13:53:19;15.70;55.90
24618;DHT22;12762;51.730;5.356;2023-04-25T13:55:46;15.80;56.00
24618;DHT22;12762;51.730;5.356;2023-04-25T13:58:13;16.10;55.90
24618;DHT22;12762;51.730;5.356;2023-04-25T14:00:40;16.30;55.30
24618;DHT22;12762;51.730;5.356;2023-04-25T14:03:09;16.20;54.70
24618;DHT22;12762;51.730;5.356;2023-04-25T14:05:37;16.10;54.90
24618;DHT22;12762;51.730;5.356;2023-04-25T14:08:06;15.90;55.00
24618;DHT22;12762;51.730;5.356;2023-04-25T14:10:34;15.70;55.30
24618;DHT22;12762;51.730;5.356;2023-04-25T14:13:01;15.50;55.80
24618;DHT22;12762;51.730;5.356;2023-04-25T14:15:31;15.50;56.20
24618;DHT22;12762;51.730;5.356;2023-04-25T14:17:59;15.70;56.50
24618;DHT22;12762;51.730;5.356;2023-04-25T14:20:26;15.90;56.10
24618;DHT22;12762;51.730;5.356;2023-04-25T14:22:53;16.10;55.50
24618;DHT22;12762;51.730;5.356;2023-04-25T14:25:22;16.20;55.10
24618;DHT22;12762;51.730;5.356;2023-04-25T14:27:49;16.10;54.50
24618;DHT22;12762;51.730;5.356;2023-04-25T14:30:20;16.00;54.50
24618;DHT22;12762;51.730;5.356;2023-04-25T14:32:50;15.70;53.90
24618;DHT22;12762;51.730;5.356;2023-04-25T14:35:17;15.50;53.70
24618;DHT22;12762;51.730;5.356;2023-04-25T14:37:44;15.50;53.90
24618;DHT22;12762;51.730;5.356;2023-04-25T14:40:12;15.50;53.60
24618;DHT22;12762;51.730;5.356;2023-04-25T14:42:40;15.50;53.50
24618;DHT22;12762;51.730;5.356;2023-04-25T14:45:08;15.60;53.20
24618;DHT22;12762;51.730;5.356;2023-04-25T14:47:38;15.70;53.00
24618;DHT22;12762;51.730;5.356;2023-04-25T14:50:06;15.80;52.80
24618;DHT22;12762;51.730;5.356;2023-04-25T14:52:33;15.90;52.70
24618;DHT22;12762;51.730;5.356;2023-04-25T14:55:04;15.80;51.70
24618;DHT22;12762;51.730;5.356;2023-04-25T14:57:32;15.70;52.20
24618;DHT22;12762;51.730;5.356;2023-04-25T14:59:59;15.50;52.00
24618;DHT22;12762;51.730;5.356;2023-04-25T15:02:28;15.30;52.00
24618;DHT22;12762;51.730;5.356;2023-04-25T15:04:55;15.10;52.20
24618;DHT22;12762;51.730;5.356;2023-04-25T15:07:23;15.00;52.40
24618;DHT22;12762;51.730;5.356;2023-04-25T15:09:50;15.00;52.90
24618;DHT22;12762;51.730;5.356;2023-04-25T15:12:17;15.10;52.10
24618;DHT22;12762;51.730;5.356;2023-04-25T15:14:44;14.90;51.80
24618;DHT22;12762;51.730;5.356;2023-04-25T15:17:11;14.80;51.60
24618;DHT22;12762;51.730;5.356;2023-04-25T15:19:40;14.60;51.50
24618;DHT22;12762;51.730;5.356;2023-04-25T15:22:07;14.40;51.70
24618;DHT22;12762;51.730;5.356;2023-04-25T15:24:34;14.20;52.50
24618;DHT22;12762;51.730;5.356;2023-04-25T15:27:01;14.00;52.20
24618;DHT22;12762;51.730;5.356;2023-04-25T15:29:29;14.00;52.60
24618;DHT22;12762;51.730;5.356;2023-04-25T15:31:56;14.00;53.00
24618;DHT22;12762;51.730;5.356;2023-04-25T15:34:26;14.00;53.20
24618;DHT22;12762;51.730;5.356;2023-04-25T15:36:53;14.10;53.10
24618;DHT22;12762;51.730;5.356;2023-04-25T15:39:20;14.10;52.80
24618;DHT22;12762;51.730;5.356;2023-04-25T15:41:47;14.10;52.20
24618;DHT22;12762;51.730;5.356;2023-04-25T15:44:14;14.10;52.50
24618;DHT22;12762;51.730;5.356;2023-04-25T15:46:41;14.20;52.50
24618;DHT22;12762;51.730;5.356;2023-04-25T15:49:07;14.30;52.50
24618;DHT22;12762;51.730;5.356;2023-04-25T15:51:38;14.40;52.30
24618;DHT22;12762;51.730;5.356;2023-04-25T15:54:05;14.50;52.50
24618;DHT22;12762;51.730;5.356;2023-04-25T15:56:34;14.60;52.20